Time;durP1;ratioP1;P1;durP2;ratioP2;P2;SDS_P1;SDS_P2;PMS_P1;PMS_P2;Temp;Humidity;BMP_temperature;BMP_pressure;BME280_temperature;BME280_humidity;BME280_pressure;Samples;Min_cycle;Max_cycle;Signal;HPM_P1;HPM_P2
2023/02/11 09:15:29;;;;;;;26.23;12.43;;;;;;;5.31;65.18;98321.09;2084401;28;20572;-59
2023/02/11 09:16:33;;;;;;;22.30;11.73;;;;;;;6.32;62.25;98331.63;2081942;28;20200;-60
2023/02/11 09:19:15;;;;;;;23.55;12.20;;;;;;;7.11;59.52;98310.66;2082852;28;21114;-57
2023/02/11 09:20:17;;;;;;;25.85;11.88;;;;;;;7.26;58.33;98330.53;2081778;28;20802;-57
2023/02/11 09:21:19;;;;;;;26.23;12.07;;;;;;;7.68;57.31;98325.94;2078992;28;20236;-58
2023/02/11 09:22:20;;;;;;;26.00;14.05;;;;;;;7.58;58.22;98321.69;2081905;28;20227;-57
2023/02/11 09:23:22;;;;;;;27.23;13.95;;;;;;;7.91;56.90;98322.34;2081833;28;20252;-58
2023/02/11 09:24:26;;;;;;;25.63;12.68;;;;;;;8.59;56.04;98325.25;2082688;28;20196;-57
2023/02/11 09:25:27;;;;;;;25.15;13.38;;;;;;;8.26;55.63;98318.59;2082989;28;20212;-58
2023/02/11 09:26:31;;;;;;;24.60;12.90;;;;;;;7.77;57.07;98315.50;2078969;28;20263;-58
2023/02/11 09:27:32;;;;;;;27.67;14.05;;;;;;;7.84;56.36;98303.31;2080103;28;20200;-58
2023/02/11 09:28:34;;;;;;;24.98;13.77;;;;;;;8.30;56.25;98313.38;2083314;28;20196;-58
2023/02/11 09:29:36;;;;;;;27.63;13.15;;;;;;;9.01;54.48;98311.78;2081586;28;20216;-57
2023/02/11 09:30:38;;;;;;;23.55;13.48;;;;;;;9.63;53.05;98317.06;2081411;28;20281;-58
2023/02/11 09:31:40;;;;;;;21.75;13.00;;;;;;;10.60;51.19;98313.81;2079119;28;20863;-58
2023/02/11 09:32:42;;;;;;;22.17;11.95;;;;;;;10.69;50.23;98308.44;2081696;28;21044;-58
2023/02/11 09:33:49;;;;;;;22.30;11.77;;;;;;;10.91;50.00;98308.88;2080502;28;20197;-58
2023/02/11 09:34:50;;;;;;;26.05;11.35;;;;;;;11.35;48.89;98307.97;2081797;28;20207;-58
2023/02/11 09:35:51;;;;;;;15.90;8.85;;;;;;;10.93;48.67;98308.81;2081504;28;20204;-59
2023/02/11 09:36:53;;;;;;;13.18;7.25;;;;;;;12.05;47.00;98309.94;2081197;28;20197;-59
2023/02/11 09:37:55;;;;;;;12.55;6.75;;;;;;;12.81;44.95;98315.84;2081280;28;20335;-59
2023/02/11 09:38:58;;;;;;;12.40;7.10;;;;;;;12.65;45.31;98318.06;2083178;28;20799;-59
2023/02/11 09:40:00;;;;;;;10.57;6.40;;;;;;;13.05;44.98;98315.19;2082857;28;20227;-58
2023/02/11 09:41:06;;;;;;;12.25;7.75;;;;;;;13.08;45.01;98316.88;2082343;28;20224;-59
2023/02/11 09:42:40;;;;;;;11.20;6.80;;;;;;;12.99;44.39;98320.63;2081470;28;20201;-58
2023/02/11 09:43:46;;;;;;;9.27;5.63;;;;;;;13.74;42.82;98321.97;2079636;28;20229;-59
2023/02/11 09:44:49;;;;;;;7.45;4.78;;;;;;;13.26;43.05;98327.75;2079536;28;20223;-59
2023/02/11 09:45:54;;;;;;;7.10;4.78;;;;;;;13.96;42.36;98313.41;2081139;28;20205;-58
2023/02/11 09:47:02;;;;;;;10.35;5.53;;;;;;;14.93;41.02;98314.56;2082187;28;20205;-59
2023/02/11 09:48:16;;;;;;;9.05;4.45;;;;;;;14.75;41.13;98313.47;2081370;28;20223;-59
2023/02/11 09:49:23;;;;;;;7.38;5.10;;;;;;;13.88;42.29;98319.75;2083457;28;20667;-59
2023/02/11 09:50:33;;;;;;;11.82;6.35;;;;;;;13.15;43.13;98326.25;2080583;28;20220;-59
2023/02/11 09:51:58;;;;;;;9.43;5.97;;;;;;;13.53;42.88;98329.59;2082345;28;20193;-59
2023/02/11 09:53:25;;;;;;;15.68;7.63;;;;;;;13.64;42.79;98321.38;2080166;28;20566;-58
2023/02/11 09:54:43;;;;;;;15.43;7.63;;;;;;;13.80;41.97;98331.41;2081614;28;20641;-59
2023/02/11 09:55:49;;;;;;;8.77;5.75;;;;;;;13.63;43.14;98337.19;2082446;28;20619;-58
2023/02/11 09:56:51;;;;;;;9.10;4.63;;;;;;;14.19;41.40;98339.81;2081973;28;20209;-58
2023/02/11 09:57:52;;;;;;;6.40;3.75;;;;;;;13.60;42.67;98345.13;2081349;28;20224;-58
2023/02/11 09:58:54;;;;;;;7.63;4.65;;;;;;;14.18;41.58;98342.47;2082983;28;20690;-59
2023/02/11 09:59:56;;;;;;;5.68;3.42;;;;;;;13.88;42.41;98347.81;2082467;28;20201;-61
2023/02/11 10:01:04;;;;;;;6.13;3.65;;;;;;;14.90;40.07;98347.09;2081344;28;20208;-59
2023/02/11 10:02:19;;;;;;;5.85;3.10;;;;;;;14.54;40.78;98348.28;2081853;28;20200;-60
2023/02/11 10:03:52;;;;;;;6.85;3.45;;;;;;;14.63;41.14;98349.75;2081864;28;20225;-59
2023/02/11 10:05:12;;;;;;;4.45;2.53;;;;;;;14.72;39.98;98347.75;2085217;28;20212;-59
2023/02/11 10:06:26;;;;;;;6.93;2.45;;;;;;;14.41;40.65;98359.25;2080387;28;20264;-59
2023/02/11 10:07:44;;;;;;;4.78;2.80;;;;;;;15.17;39.90;98361.06;2080188;28;20201;-59
2023/02/11 10:09:01;;;;;;;5.53;2.67;;;;;;;15.45;39.50;98356.53;2078847;28;20194;-59
2023/02/11 10:10:08;;;;;;;6.50;3.15;;;;;;;16.54;38.28;98363.75;2081722;28;20200;-59
2023/02/11 10:11:24;;;;;;;6.35;3.20;;;;;;;16.29;38.36;98360.34;2078674;28;20288;-59
2023/02/11 10:13:18;;;;;;;3.83;2.55;;;;;;;15.86;38.17;98364.69;2082469;28;20284;-59
2023/02/11 10:14:41;;;;;;;5.40;3.08;;;;;;;15.71;38.43;98358.19;2081551;28;20200;-60
2023/02/11 10:15:49;;;;;;;5.63;2.90;;;;;;;16.05;38.46;98354.28;2083409;28;20197;-59
2023/02/11 10:17:16;;;;;;;5.80;2.97;;;;;;;16.28;37.75;98361.25;2080930;28;20267;-59
2023/02/11 10:18:40;;;;;;;7.45;3.40;;;;;;;16.46;37.25;98353.53;2078073;28;20561;-60
2023/02/11 10:19:59;;;;;;;7.63;2.67;;;;;;;15.93;38.58;98352.97;2081685;28;20248;-59
2023/02/11 10:21:26;;;;;;;7.82;2.70;;;;;;;16.48;38.31;98356.94;2080320;28;20212;-60
2023/02/11 10:22:34;;;;;;;7.40;3.40;;;;;;;16.51;38.20;98361.25;2081505;28;20204;-59
2023/02/11 10:23:40;;;;;;;5.45;3.05;;;;;;;16.72;37.48;98365.63;2080389;28;20596;-59
2023/02/11 10:24:50;;;;;;;4.20;2.58;;;;;;;16.52;38.50;98366.44;2081364;28;20238;-59
2023/02/11 10:25:53;;;;;;;3.13;1.90;;;;;;;16.64;37.92;98367.72;2081634;28;20197;-59
2023/02/11 10:26:58;;;;;;;7.32;2.63;;;;;;;17.45;36.72;98368.59;2078798;28;20209;-59
2023/02/11 10:28:08;;;;;;;4.13;2.65;;;;;;;17.90;35.85;98368.34;2080144;28;20224;-59
2023/02/11 10:29:30;;;;;;;4.55;2.75;;;;;;;17.57;35.67;98368.97;2081926;28;20280;-59
2023/02/11 10:30:36;;;;;;;5.88;2.88;;;;;;;16.59;37.27;98374.97;2077127;28;20205;-59
2023/02/11 10:31:42;;;;;;;5.80;2.78;;;;;;;16.57;37.24;98369.75;2091380;28;20224;-59
2023/02/11 10:32:47;;;;;;;5.15;3.42;;;;;;;16.52;37.69;98365.56;2082646;28;20220;-59
2023/02/11 10:33:57;;;;;;;4.85;2.85;;;;;;;16.79;37.49;98369.69;2075950;28;20866;-59
2023/02/11 10:35:03;;;;;;;6.35;3.38;;;;;;;17.16;37.53;98363.78;2076569;28;20231;-59
2023/02/11 10:36:04;;;;;;;5.70;3.15;;;;;;;16.72;37.16;98360.34;2075223;28;20200;-58
2023/02/11 10:37:07;;;;;;;6.22;2.55;;;;;;;14.40;39.83;98357.53;2076879;28;20672;-59
2023/02/11 10:38:10;;;;;;;4.82;2.92;;;;;;;13.42;41.77;98360.53;2075785;28;20218;-59
2023/02/11 10:39:30;;;;;;;8.05;2.80;;;;;;;14.94;41.81;98361.00;2076282;28;20224;-58
2023/02/11 10:40:32;;;;;;;7.53;3.80;;;;;;;16.75;38.37;98348.81;2076476;28;20193;-58
2023/02/11 10:41:38;;;;;;;7.60;3.30;;;;;;;16.76;37.59;98356.66;2074161;28;20205;-59
2023/02/11 10:42:42;;;;;;;5.75;3.30;;;;;;;14.96;39.09;98331.09;2074820;28;20870;-59
2023/02/11 10:43:44;;;;;;;8.48;4.00;;;;;;;13.09;42.55;98357.06;2075607;28;20672;-59
2023/02/11 10:44:59;;;;;;;8.20;4.00;;;;;;;14.23;41.32;98356.31;2076959;28;20296;-59
2023/02/11 10:46:03;;;;;;;12.07;4.00;;;;;;;15.57;39.79;98360.50;2076436;28;20208;-59
2023/02/11 10:47:22;;;;;;;7.05;3.72;;;;;;;16.20;38.49;98351.94;2076707;28;20602;-59
2023/02/11 10:48:45;;;;;;;5.47;3.10;;;;;;;17.35;36.72;98350.63;2072834;28;20210;-59
2023/02/11 10:49:47;;;;;;;8.32;3.65;;;;;;;16.25;37.48;98329.78;2074189;28;20261;-59
2023/02/11 10:50:49;;;;;;;5.57;3.53;;;;;;;16.31;38.42;98337.41;2076231;28;20221;-59
2023/02/11 10:52:21;;;;;;;3.65;2.75;;;;;;;17.56;36.69;98338.22;2075975;28;20202;-58
2023/02/11 10:53:23;;;;;;;6.65;3.53;;;;;;;17.91;35.58;98338.34;2076267;28;20220;-59
2023/02/11 10:54:24;;;;;;;7.78;3.65;;;;;;;17.60;35.64;98332.72;2073062;28;20208;-59
2023/02/11 10:55:27;;;;;;;6.88;4.53;;;;;;;17.26;36.66;98326.34;2073036;28;20194;-59
2023/02/11 10:56:32;;;;;;;8.82;3.38;;;;;;;17.09;36.44;98326.25;2078129;28;20794;-59
2023/02/11 10:57:39;;;;;;;7.07;4.07;;;;;;;17.20;36.47;98323.13;2074383;28;20229;-59
2023/02/11 10:58:52;;;;;;;7.50;4.60;;;;;;;17.04;36.61;98321.19;2072887;28;20247;-59
2023/02/11 11:00:02;;;;;;;5.78;3.75;;;;;;;15.43;38.63;98303.13;2075052;28;20746;-58
2023/02/11 11:01:03;;;;;;;10.95;2.97;;;;;;;15.95;38.31;98324.81;2075687;28;20284;-58
2023/02/11 11:02:30;;;;;;;6.25;3.30;;;;;;;16.88;37.34;98305.13;2074643;28;20193;-58
2023/02/11 11:03:50;;;;;;;8.80;3.70;;;;;;;16.22;37.21;98305.31;2072823;28;20264;-58
2023/02/11 11:04:56;;;;;;;5.97;3.45;;;;;;;16.71;37.10;98300.59;2074929;28;20224;-59
2023/02/11 11:06:00;;;;;;;9.30;3.75;;;;;;;16.55;37.04;98308.31;2076342;28;20201;-59
2023/02/11 11:07:21;;;;;;;12.27;4.18;;;;;;;16.63;37.57;98307.97;2076371;28;20334;-59
2023/02/11 11:08:40;;;;;;;6.43;3.75;;;;;;;17.92;35.35;98303.06;2075656;28;20225;-59
2023/02/11 11:09:52;;;;;;;10.77;4.18;;;;;;;15.98;37.57;98300.97;2072599;28;20224;-59
2023/02/11 11:11:03;;;;;;;7.32;4.10;;;;;;;16.29;37.47;98297.09;2076216;28;20234;-59
2023/02/11 11:12:05;;;;;;;9.45;4.18;;;;;;;16.53;37.38;98306.66;2076019;28;20213;-59
2023/02/11 11:13:23;;;;;;;6.90;3.75;;;;;;;16.38;37.49;98305.50;2071656;28;20611;-59
2023/02/11 11:14:27;;;;;;;5.63;3.22;;;;;;;16.92;36.99;98304.09;2074388;28;20248;-58
2023/02/11 11:15:30;;;;;;;9.00;4.47;;;;;;;16.63;37.14;98307.97;2091740;28;20204;-58
2023/02/11 11:16:36;;;;;;;9.70;4.22;;;;;;;17.13;36.64;98312.84;2089443;28;20189;-59
2023/02/11 11:17:37;;;;;;;5.68;3.17;;;;;;;17.05;36.59;98308.84;2074649;28;20221;-58
2023/02/11 11:18:40;;;;;;;8.23;4.00;;;;;;;17.18;36.21;98317.06;2072251;28;20241;-59
2023/02/11 11:19:42;;;;;;;8.02;4.03;;;;;;;17.66;36.45;98309.59;2073261;28;20269;-58
2023/02/11 11:20:56;;;;;;;8.95;4.10;;;;;;;17.74;36.26;98310.09;2077845;28;20292;-59
2023/02/11 11:21:58;;;;;;;6.68;3.75;;;;;;;18.02;36.47;98316.75;2076356;28;20249;-58
2023/02/11 11:23:18;;;;;;;6.93;3.47;;;;;;;18.03;36.05;98311.38;2075068;28;20230;-58
2023/02/11 11:24:21;;;;;;;7.15;3.33;;;;;;;18.43;35.85;98319.97;2077053;28;21055;-58
2023/02/11 11:25:26;;;;;;;7.75;3.58;;;;;;;18.44;35.78;98315.53;2075774;28;20193;-58
2023/02/11 11:26:51;;;;;;;11.32;3.72;;;;;;;18.89;35.68;98310.59;2077646;28;20220;-58
2023/02/11 11:27:56;;;;;;;6.28;3.90;;;;;;;18.75;35.57;98308.69;2073958;28;20261;-58
2023/02/11 11:29:05;;;;;;;7.63;3.92;;;;;;;18.21;35.81;98317.53;2075646;28;20197;-58
2023/02/11 11:30:15;;;;;;;8.50;3.95;;;;;;;17.54;36.77;98306.59;2076182;28;20193;-59
2023/02/11 11:31:31;;;;;;;7.85;3.55;;;;;;;18.22;36.05;98311.31;2093695;28;20191;-58
2023/02/11 11:32:34;;;;;;;6.70;3.65;;;;;;;19.10;35.28;98306.03;2087344;28;20298;-59
2023/02/11 11:33:36;;;;;;;9.35;4.15;;;;;;;18.85;35.18;98306.41;2075550;28;20584;-58
2023/02/11 11:34:42;;;;;;;7.90;4.45;;;;;;;19.25;35.00;98313.13;2072426;28;20685;-58
2023/02/11 11:35:55;;;;;;;9.55;3.90;;;;;;;19.55;34.27;98311.56;2075624;28;20240;-58
2023/02/11 11:36:59;;;;;;;8.40;3.53;;;;;;;19.44;33.90;98311.28;2075720;28;20276;-58
2023/02/11 11:38:03;;;;;;;8.55;3.80;;;;;;;18.34;35.35;98301.06;2074879;28;20225;-58
2023/02/11 11:39:19;;;;;;;6.40;3.40;;;;;;;18.85;35.32;98309.91;2074714;28;20548;-58
2023/02/11 11:40:29;;;;;;;7.50;4.13;;;;;;;18.18;35.52;98312.41;2076028;28;20228;-59
2023/02/11 11:41:32;;;;;;;6.85;3.47;;;;;;;18.71;35.31;98307.13;2074804;28;20236;-59
2023/02/11 11:42:38;;;;;;;6.05;4.35;;;;;;;18.06;36.02;98319.13;2076490;28;20205;-59
2023/02/11 11:43:53;;;;;;;6.95;4.18;;;;;;;18.93;35.49;98314.84;2073637;28;20220;-59
2023/02/11 11:45:00;;;;;;;6.35;3.50;;;;;;;18.93;35.38;98310.41;2075444;28;20204;-59
2023/02/11 11:46:05;;;;;;;10.73;3.80;;;;;;;19.15;34.86;98316.38;2073903;28;20237;-58
2023/02/11 11:47:09;;;;;;;7.80;3.97;;;;;;;19.02;35.32;98302.91;2074253;28;20201;-59
2023/02/11 11:48:37;;;;;;;6.50;3.20;;;;;;;19.54;34.82;98310.72;2074990;28;20590;-58
2023/02/11 11:50:04;;;;;;;7.80;3.55;;;;;;;19.73;33.81;98315.84;2075765;28;20538;-59
2023/02/11 11:51:10;;;;;;;8.70;3.85;;;;;;;19.41;34.04;98309.66;2074358;28;20198;-59
2023/02/11 11:52:32;;;;;;;13.82;4.55;;;;;;;18.77;34.50;98302.38;2074690;28;20208;-59
2023/02/11 11:53:43;;;;;;;11.27;3.80;;;;;;;18.50;34.59;98309.94;2077068;28;20530;-59
2023/02/11 11:54:52;;;;;;;8.30;5.20;;;;;;;18.78;35.28;98300.59;2076817;28;20254;-59
2023/02/11 11:56:06;;;;;;;9.50;4.45;;;;;;;18.95;34.59;98294.44;2076331;28;20284;-59
2023/02/11 11:57:16;;;;;;;9.63;4.40;;;;;;;18.49;35.38;98304.75;2075902;28;20716;-58
2023/02/11 11:58:19;;;;;;;10.45;4.68;;;;;;;18.52;35.97;98302.78;2075051;28;20675;-59
2023/02/11 11:59:21;;;;;;;11.65;5.80;;;;;;;17.54;36.52;98305.75;2075968;28;20227;-58
2023/02/11 12:00:34;;;;;;;10.98;5.75;;;;;;;17.57;37.18;98301.19;2076170;28;20672;-58
2023/02/11 12:02:12;;;;;;;11.43;6.22;;;;;;;17.53;37.33;98299.59;2075724;28;20683;-58
2023/02/11 12:03:32;;;;;;;9.43;6.00;;;;;;;18.17;36.93;98300.13;2074545;28;20272;-58
2023/02/11 12:04:52;;;;;;;11.43;5.05;;;;;;;18.59;36.39;98298.03;2074438;28;20509;-59
2023/02/11 12:06:08;;;;;;;8.98;5.60;;;;;;;18.71;35.82;98300.03;2076104;28;20228;-58
2023/02/11 12:07:31;;;;;;;11.80;6.47;;;;;;;18.05;36.48;98303.38;2077286;28;20251;-58
2023/02/11 12:08:55;;;;;;;15.82;6.50;;;;;;;17.16;37.89;98306.56;2075666;28;20221;-58
2023/02/11 12:10:08;;;;;;;10.10;5.35;;;;;;;17.03;38.36;98292.22;2072392;28;20205;-58
2023/02/11 12:11:22;;;;;;;10.70;5.45;;;;;;;15.77;39.78;98294.75;2075388;28;20209;-58
2023/02/11 12:12:38;;;;;;;12.85;5.53;;;;;;;15.82;39.98;98298.09;2072114;28;20236;-59
2023/02/11 12:13:57;;;;;;;9.48;6.28;;;;;;;17.12;38.56;98291.81;2072339;28;20214;-59
2023/02/11 12:15:30;;;;;;;15.77;7.03;;;;;;;16.75;38.92;98296.91;2076343;28;20252;-58
2023/02/11 12:16:38;;;;;;;12.27;6.60;;;;;;;17.95;37.92;98300.31;2076623;28;20226;-59
2023/02/11 12:18:04;;;;;;;13.15;5.85;;;;;;;18.17;37.38;98299.25;2073737;28;20205;-58
2023/02/11 12:19:23;;;;;;;14.38;6.00;;;;;;;17.19;38.20;98301.16;2073412;28;20605;-59
2023/02/11 12:20:58;;;;;;;13.80;5.70;;;;;;;18.21;37.32;98290.25;2073538;28;20218;-58
2023/02/11 12:22:00;;;;;;;10.07;5.65;;;;;;;18.66;36.72;98288.00;2076400;28;20201;-58
2023/02/11 12:23:27;;;;;;;10.52;6.05;;;;;;;18.44;36.56;98294.38;2071319;28;20268;-58
2023/02/11 12:24:48;;;;;;;15.95;5.97;;;;;;;18.26;37.37;98298.81;2074888;28;20209;-58
2023/02/11 12:26:02;;;;;;;15.57;6.07;;;;;;;18.17;37.41;98294.84;2087912;28;20295;-58
2023/02/11 12:27:18;;;;;;;14.15;6.15;;;;;;;18.79;36.65;98294.34;2085533;28;20207;-58
2023/02/11 12:28:38;;;;;;;14.52;6.20;;;;;;;17.84;36.88;98289.34;2071643;28;20221;-58
2023/02/11 12:30:00;;;;;;;10.43;5.68;;;;;;;17.69;38.17;98294.47;2074145;28;20277;-58
2023/02/11 12:31:23;;;;;;;13.68;7.18;;;;;;;17.82;37.26;98293.88;2081398;28;20294;-58
2023/02/11 12:32:27;;;;;;;14.75;7.25;;;;;;;17.25;38.82;98292.09;2079603;28;20272;-58
2023/02/11 12:33:41;;;;;;;12.02;6.60;;;;;;;17.33;38.84;98295.25;2075819;28;20196;-58
2023/02/11 12:34:58;;;;;;;13.48;7.07;;;;;;;16.11;39.90;98298.72;2072212;28;20288;-58
2023/02/11 12:36:06;;;;;;;15.73;7.75;;;;;;;15.71;41.26;98300.25;2077437;28;20196;-58
2023/02/11 12:37:41;;;;;;;12.10;6.85;;;;;;;15.26;41.97;98296.72;2074303;28;20205;-58
2023/02/11 12:39:11;;;;;;;14.05;7.57;;;;;;;16.01;41.16;98297.38;2076927;28;20221;-58
2023/02/11 12:40:33;;;;;;;22.58;8.30;;;;;;;16.95;39.87;98297.81;2073110;28;20673;-59
2023/02/11 12:43:25;;;;;;;16.25;8.32;;;;;;;16.56;40.85;98291.56;2071717;28;20254;-58
2023/02/11 12:44:45;;;;;;;18.98;8.88;;;;;;;17.35;39.64;98288.09;2075833;28;20204;-59
2023/02/11 12:46:19;;;;;;;13.82;7.88;;;;;;;17.11;39.75;98298.84;2075387;28;20259;-59
2023/02/11 12:48:08;;;;;;;15.05;8.63;;;;;;;16.92;39.86;98290.91;2073942;28;20385;-59
2023/02/11 12:49:35;;;;;;;15.27;7.60;;;;;;;17.24;38.84;98296.53;2074985;28;20846;-59
2023/02/11 12:50:56;;;;;;;17.45;8.00;;;;;;;17.86;38.70;98296.28;2075705;28;20235;-58
2023/02/11 12:52:19;;;;;;;14.50;8.38;;;;;;;17.53;38.95;98302.22;2072039;28;20217;-59
2023/02/11 12:53:36;;;;;;;21.08;9.10;;;;;;;18.31;37.95;98294.16;2073454;28;20213;-58
2023/02/11 12:54:45;;;;;;;18.00;8.50;;;;;;;17.76;38.30;98287.97;2073485;28;20204;-58
2023/02/11 12:55:51;;;;;;;16.67;7.45;;;;;;;17.79;38.24;98297.53;2075594;28;20200;-58
2023/02/11 12:57:00;;;;;;;19.38;8.95;;;;;;;18.64;37.48;98289.84;2071874;28;20576;-59
2023/02/11 12:58:03;;;;;;;15.57;9.20;;;;;;;17.05;38.91;98295.63;2072088;28;20240;-59
2023/02/11 12:59:14;;;;;;;13.43;7.15;;;;;;;17.25;39.31;98292.09;2074660;28;20301;-59
2023/02/11 13:00:21;;;;;;;20.67;9.10;;;;;;;17.48;38.84;98291.03;2074991;28;20224;-59
2023/02/11 13:01:32;;;;;;;16.20;8.18;;;;;;;16.35;40.17;98289.84;2073427;28;20198;-59
2023/02/11 13:02:53;;;;;;;16.92;10.25;;;;;;;16.22;40.75;98286.88;2073153;28;20193;-58
2023/02/11 13:04:03;;;;;;;17.27;9.73;;;;;;;16.65;40.85;98293.78;2076717;28;20660;-58
2023/02/11 13:05:28;;;;;;;17.48;8.98;;;;;;;17.34;39.58;98280.28;2074625;28;20915;-59
2023/02/11 13:06:39;;;;;;;21.65;10.40;;;;;;;16.84;40.69;98293.00;2074898;28;20197;-58
2023/02/11 13:07:45;;;;;;;19.92;10.75;;;;;;;17.23;40.33;98286.03;2074293;28;20197;-58
2023/02/11 13:08:50;;;;;;;23.63;10.95;;;;;;;16.54;41.58;98271.47;2074717;28;20193;-58
2023/02/11 13:10:15;;;;;;;24.05;11.05;;;;;;;16.94;40.35;98285.59;2075405;28;20201;-60
2023/02/11 13:11:21;;;;;;;20.90;12.30;;;;;;;17.48;39.96;98280.47;2076601;28;20205;-60
2023/02/11 13:13:43;;;;;;;19.15;10.82;;;;;;;17.60;39.14;98274.63;2076049;28;20753;-59
2023/02/11 13:14:47;;;;;;;20.45;10.82;;;;;;;17.74;38.80;98276.59;2073719;28;20233;-59
2023/02/11 13:16:06;;;;;;;19.42;10.00;;;;;;;17.11;39.70;98258.41;2074422;28;20588;-60
2023/02/11 13:17:26;;;;;;;17.95;9.98;;;;;;;17.17;39.47;98262.56;2073945;28;20243;-60
2023/02/11 13:18:51;;;;;;;19.55;10.70;;;;;;;17.46;39.82;98267.34;2073881;28;20236;-59
2023/02/11 13:20:00;;;;;;;22.13;11.23;;;;;;;17.03;40.01;98268.47;2075824;28;20626;-59
2023/02/11 13:21:01;;;;;;;23.05;11.25;;;;;;;17.69;39.44;98273.31;2071974;28;20210;-60
2023/02/11 13:22:12;;;;;;;25.05;12.00;;;;;;;17.70;39.41;98277.69;2073900;28;20212;-60
2023/02/11 13:23:29;;;;;;;21.13;12.30;;;;;;;17.58;39.72;98265.91;2073939;28;20232;-59
2023/02/11 13:24:52;;;;;;;24.17;12.63;;;;;;;17.56;39.52;98264.25;2074329;28;20199;-60
2023/02/11 13:26:03;;;;;;;26.17;11.70;;;;;;;17.27;40.34;98277.06;2074595;28;20209;-60
2023/02/11 13:27:19;;;;;;;23.98;11.05;;;;;;;16.79;40.92;98272.09;2073455;28;20696;-60
2023/02/11 13:28:44;;;;;;;19.33;11.88;;;;;;;17.38;39.23;98274.78;2074846;28;20224;-60
2023/02/11 13:29:51;;;;;;;17.20;11.25;;;;;;;16.96;40.72;98270.50;2074704;28;20213;-60
2023/02/11 13:31:01;;;;;;;39.58;19.88;;;;;;;16.96;40.13;98273.16;2071599;28;20695;-61
2023/02/11 13:32:08;;;;;;;27.50;13.77;;;;;;;16.80;40.80;98265.06;2072312;28;20208;-61
2023/02/11 13:33:15;;;;;;;21.02;11.55;;;;;;;17.09;40.91;98265.53;2076022;28;20255;-60
2023/02/11 13:34:25;;;;;;;19.38;11.45;;;;;;;16.60;40.94;98265.94;2073730;28;20206;-61
2023/02/11 13:35:38;;;;;;;22.98;11.85;;;;;;;16.25;41.94;98270.91;2073436;28;20200;-60
2023/02/11 13:36:40;;;;;;;21.77;12.07;;;;;;;15.74;42.38;98259.78;2073055;28;20236;-61
2023/02/11 13:37:46;;;;;;;16.02;10.35;;;;;;;16.08;42.14;98269.84;2075466;28;20627;-61
2023/02/11 13:39:03;;;;;;;29.48;12.43;;;;;;;16.44;41.84;98265.72;2075790;28;20232;-60
2023/02/11 13:40:06;;;;;;;23.27;11.65;;;;;;;16.10;41.26;98275.03;2076092;28;20829;-61
2023/02/11 13:41:15;;;;;;;21.88;11.30;;;;;;;16.44;41.63;98273.63;2074915;28;20209;-61
2023/02/11 13:42:17;;;;;;;24.40;11.70;;;;;;;16.25;41.16;98255.97;2076518;28;20202;-61
2023/02/11 13:43:22;;;;;;;19.98;11.60;;;;;;;16.03;42.02;98269.16;2071247;28;20229;-60
2023/02/11 13:44:25;;;;;;;19.85;10.52;;;;;;;15.49;42.22;98272.13;2073722;28;20769;-61
2023/02/11 13:45:36;;;;;;;23.67;12.57;;;;;;;15.86;41.84;98269.00;2074825;28;20198;-61
2023/02/11 13:46:48;;;;;;;22.67;11.73;;;;;;;15.74;41.60;98267.69;2074845;28;20205;-61
2023/02/11 13:47:57;;;;;;;22.02;11.20;;;;;;;16.05;41.34;98259.44;2073710;28;20228;-61
2023/02/11 13:48:58;;;;;;;18.17;10.05;;;;;;;16.46;40.58;98256.81;2074868;28;20217;-61
2023/02/11 13:50:04;;;;;;;19.40;10.77;;;;;;;16.20;40.88;98267.59;2074661;28;20189;-61
2023/02/11 13:51:09;;;;;;;31.35;11.73;;;;;;;15.39;42.38;98255.00;2075736;28;20201;-61
2023/02/11 13:52:28;;;;;;;19.15;10.80;;;;;;;15.30;42.87;98273.75;2077229;28;20201;-61
2023/02/11 13:53:44;;;;;;;21.08;10.95;;;;;;;14.97;42.92;98267.06;2074795;28;20245;-60
2023/02/11 13:54:50;;;;;;;22.13;9.45;;;;;;;15.09;42.87;98270.16;2074455;28;20237;-61
2023/02/11 13:56:03;;;;;;;21.20;10.70;;;;;;;14.71;42.87;98257.50;2075698;28;20208;-61
2023/02/11 13:57:33;;;;;;;18.15;9.85;;;;;;;15.19;42.67;98269.75;2076161;28;20221;-60
2023/02/11 13:58:45;;;;;;;24.70;11.88;;;;;;;15.31;43.06;98270.19;2075138;28;20228;-61
2023/02/11 13:59:49;;;;;;;18.52;11.75;;;;;;;15.25;42.47;98273.06;2072410;28;20830;-60
2023/02/11 14:00:51;;;;;;;22.10;11.13;;;;;;;15.44;42.32;98268.84;2072745;28;20259;-61
2023/02/11 14:09:35;;;;;;;19.67;10.25;;;;;;;14.56;43.45;98264.09;2076274;28;20201;-61
2023/02/11 14:10:40;;;;;;;19.55;10.65;;;;;;;14.47;44.13;98264.44;2076629;28;20212;-61
2023/02/11 14:11:54;;;;;;;16.77;9.55;;;;;;;15.44;42.96;98266.19;2076058;28;20201;-61
2023/02/11 14:13:15;;;;;;;19.52;10.77;;;;;;;15.64;42.42;98261.91;2075909;28;20286;-61
2023/02/11 14:14:27;;;;;;;16.73;9.68;;;;;;;14.46;43.28;98252.22;2076278;28;20251;-61
2023/02/11 14:15:37;;;;;;;16.80;9.38;;;;;;;14.52;43.67;98262.50;2075312;28;20216;-61
2023/02/11 14:17:26;;;;;;;21.83;12.57;;;;;;;14.41;43.87;98256.75;2076945;28;20277;-60
2023/02/11 14:18:43;;;;;;;24.58;11.55;;;;;;;14.63;43.49;98260.38;2077835;28;20304;-61
2023/02/11 14:19:48;;;;;;;13.98;8.85;;;;;;;14.59;43.25;98250.88;2077733;28;20209;-60
2023/02/11 14:20:49;;;;;;;14.75;9.13;;;;;;;14.95;43.05;98254.91;2076209;28;20197;-61
2023/02/11 14:21:52;;;;;;;16.45;9.25;;;;;;;14.60;43.24;98244.72;2076546;28;20224;-61
2023/02/11 14:22:55;;;;;;;13.55;8.77;;;;;;;15.09;42.80;98251.75;2091189;28;20223;-61
2023/02/11 14:24:09;;;;;;;15.50;9.38;;;;;;;15.42;42.22;98254.84;2090104;28;20200;-61
2023/02/11 14:25:22;;;;;;;14.68;9.65;;;;;;;15.36;42.16;98255.09;2073247;28;20243;-61
2023/02/11 14:26:47;;;;;;;16.10;8.85;;;;;;;15.38;42.53;98257.69;2078803;28;20193;-61
2023/02/11 14:28:02;;;;;;;23.95;9.75;;;;;;;15.27;42.72;98258.09;2072607;28;21065;-61
2023/02/11 14:29:40;;;;;;;19.00;10.27;;;;;;;15.80;41.51;98252.47;2077302;28;20189;-61
2023/02/11 14:31:11;;;;;;;16.10;9.73;;;;;;;16.06;41.30;98247.97;2074435;28;20205;-61
2023/02/11 14:32:24;;;;;;;15.20;9.50;;;;;;;16.38;40.65;98252.78;2078810;28;20231;-61
2023/02/11 14:33:45;;;;;;;17.33;9.25;;;;;;;15.89;40.92;98247.81;2075842;28;20225;-61
2023/02/11 14:35:04;;;;;;;17.73;9.73;;;;;;;15.82;40.92;98255.06;2091356;28;20232;-61
2023/02/11 14:36:30;;;;;;;14.30;9.35;;;;;;;16.34;40.45;98249.44;2089306;28;20554;-61
2023/02/11 14:37:50;;;;;;;13.93;8.88;;;;;;;16.54;40.13;98253.00;2077704;28;20609;-61
2023/02/11 14:39:26;;;;;;;14.95;9.10;;;;;;;16.38;40.01;98258.94;2076277;28;20205;-61
2023/02/11 14:40:37;;;;;;;17.58;9.48;;;;;;;15.59;40.88;98255.97;2076606;28;20293;-61
2023/02/11 14:41:45;;;;;;;21.25;10.32;;;;;;;14.96;41.99;98262.72;2075805;28;20326;-61
2023/02/11 14:42:46;;;;;;;16.38;8.70;;;;;;;14.84;42.21;98257.91;2076503;28;20197;-61
2023/02/11 14:44:00;;;;;;;14.52;8.98;;;;;;;14.41;42.83;98257.66;2088697;28;20894;-61
2023/02/11 14:45:14;;;;;;;20.33;11.18;;;;;;;13.17;44.64;98256.28;2081327;28;20204;-61
2023/02/11 14:46:18;;;;;;;16.70;9.35;;;;;;;12.77;45.58;98256.56;2085984;28;20196;-60
2023/02/11 14:47:26;;;;;;;18.73;10.88;;;;;;;12.86;45.84;98258.91;2089163;28;20208;-61
2023/02/11 14:48:36;;;;;;;20.27;10.52;;;;;;;13.35;45.52;98257.47;2076002;28;20312;-61
2023/02/11 14:49:39;;;;;;;15.77;9.38;;;;;;;13.66;44.89;98261.84;2076884;28;20202;-61
2023/02/11 14:50:47;;;;;;;18.33;10.73;;;;;;;13.13;46.07;98249.41;2076057;28;20922;-60
2023/02/11 14:51:48;;;;;;;19.83;10.13;;;;;;;13.17;45.60;98256.28;2074211;28;20187;-61
2023/02/11 14:52:52;;;;;;;17.67;9.30;;;;;;;13.50;45.41;98263.22;2077680;28;20251;-61
2023/02/11 14:53:59;;;;;;;17.95;10.15;;;;;;;13.90;44.57;98261.94;2077287;28;20202;-61
2023/02/11 14:55:14;;;;;;;20.98;10.52;;;;;;;14.23;44.18;98258.25;2075488;28;20201;-60
2023/02/11 14:56:26;;;;;;;19.27;9.57;;;;;;;15.05;42.85;98266.78;2075352;28;20202;-61
2023/02/11 14:57:28;;;;;;;21.90;10.07;;;;;;;13.98;44.15;98261.69;2089860;28;20646;-61
2023/02/11 14:58:31;;;;;;;20.05;10.40;;;;;;;14.04;44.33;98265.00;2088376;28;20295;-61
2023/02/11 14:59:32;;;;;;;19.30;10.40;;;;;;;13.82;44.68;98272.69;2074218;28;20248;-61
2023/02/11 15:00:34;;;;;;;18.42;10.70;;;;;;;13.31;44.90;98270.75;2075873;28;20543;-61
2023/02/11 15:01:40;;;;;;;17.00;10.23;;;;;;;12.50;47.20;98278.22;2074092;28;20679;-60